Terminal Aerodrome Forecast
Issued by NWS

Home | Current Version | Previous Version | Graphics & Text | Print | Product List | Glossary On
Versions: 1 2 3 4 5 6 7 8 9 10 11 12 13 14 15 16
000
FTUS43 KICT 051131
TAFSLN
TAF
KSLN 051131Z 0512/0612 VRB03KT P6SM SKC
     FM051700 16012KT P6SM SKC
     FM060800 22010KT P6SM SCT250=

USA.gov is the U.S. government's official web portal to all federal, state and local government web resources and services.